Time;durP1;ratioP1;P1;durP2;ratioP2;P2;SDS_P1;SDS_P2;PMS_P1;PMS_P2;Temp;Humidity;BMP_temperature;BMP_pressure;BME280_temperature;BME280_humidity;BME280_pressure;Samples;Min_cycle;Max_cycle;Signal;HPM_P1;HPM_P2
2023/03/13 00:00:35;;;;;;;2.15;1.00;;;6.50;89.40;;;;;;5102247;27;20224;-72
2023/03/13 00:03:03;;;;;;;3.40;1.30;;;6.50;89.10;;;;;;5115410;27;20200;-70
2023/03/13 00:05:30;;;;;;;2.83;0.90;;;6.50;88.80;;;;;;5114905;27;20238;-70
2023/03/13 00:07:57;;;;;;;1.77;0.93;;;6.50;89.10;;;;;;5115045;27;20594;-71
2023/03/13 00:10:26;;;;;;;2.42;1.00;;;6.50;88.70;;;;;;5114726;27;20220;-71
2023/03/13 00:12:53;;;;;;;1.70;0.80;;;6.50;88.70;;;;;;5114718;27;20583;-71
2023/03/13 00:15:20;;;;;;;1.95;0.90;;;6.50;88.20;;;;;;5115010;27;20593;-71
2023/03/13 00:17:47;;;;;;;2.38;0.93;;;6.60;88.10;;;;;;5132466;27;20195;-71
2023/03/13 00:20:16;;;;;;;3.70;1.23;;;6.50;88.20;;;;;;5132981;27;20272;-71
2023/03/13 00:22:43;;;;;;;2.92;1.20;;;6.50;88.20;;;;;;5133057;27;20196;-71
2023/03/13 00:25:10;;;;;;;2.00;0.80;;;6.50;88.10;;;;;;5132747;27;20665;-71
2023/03/13 00:27:37;;;;;;;1.95;0.95;;;6.50;88.20;;;;;;5132648;27;20267;-71
2023/03/13 00:30:05;;;;;;;2.28;0.98;;;6.40;88.20;;;;;;5132947;27;20274;-70
2023/03/13 00:32:32;;;;;;;3.05;1.05;;;6.40;88.70;;;;;;5132988;27;20187;-71
2023/03/13 00:34:59;;;;;;;2.30;1.10;;;6.40;88.50;;;;;;5132578;27;20219;-73
2023/03/13 00:37:27;;;;;;;2.42;0.90;;;6.40;88.50;;;;;;5132577;27;20278;-71
2023/03/13 00:39:54;;;;;;;2.55;1.30;;;6.30;89.00;;;;;;5132554;27;20201;-71
2023/03/13 00:42:22;;;;;;;2.83;1.30;;;6.30;89.20;;;;;;5132561;27;20243;-71
2023/03/13 00:44:49;;;;;;;2.65;1.27;;;6.30;88.60;;;;;;5131575;27;20274;-71
2023/03/13 00:47:16;;;;;;;2.25;1.10;;;6.30;88.70;;;;;;5132483;27;20647;-71
2023/03/13 00:49:43;;;;;;;1.80;0.85;;;6.30;88.80;;;;;;5132587;27;20271;-70
2023/03/13 00:52:10;;;;;;;2.30;1.35;;;6.30;88.20;;;;;;5132485;27;20244;-71
2023/03/13 00:54:40;;;;;;;3.35;1.15;;;6.30;88.40;;;;;;5126881;27;20275;-72
2023/03/13 00:57:07;;;;;;;4.35;1.00;;;6.30;88.50;;;;;;5114072;27;20271;-71
2023/03/13 00:59:34;;;;;;;2.58;1.20;;;6.20;88.70;;;;;;5114171;27;20283;-71
2023/03/13 01:02:01;;;;;;;2.38;1.10;;;6.20;89.20;;;;;;5113739;27;20332;-71
2023/03/13 01:04:28;;;;;;;4.72;1.40;;;6.20;89.30;;;;;;5113960;27;20219;-70
2023/03/13 01:06:55;;;;;;;2.50;1.10;;;6.20;89.40;;;;;;5113622;28;20611;-71
2023/03/13 01:09:24;;;;;;;1.60;0.70;;;6.20;89.50;;;;;;5113936;27;20594;-70
2023/03/13 01:11:52;;;;;;;2.55;0.90;;;6.10;89.50;;;;;;5113817;27;20532;-71
2023/03/13 01:14:20;;;;;;;2.10;0.90;;;6.20;89.40;;;;;;5127550;27;20278;-71
2023/03/13 01:16:48;;;;;;;2.00;0.85;;;6.20;89.00;;;;;;5131803;27;20673;-71
2023/03/13 01:19:20;;;;;;;3.20;1.00;;;6.20;88.30;;;;;;5131545;27;20184;-71
2023/03/13 01:21:47;;;;;;;3.50;1.75;;;6.20;88.30;;;;;;5113600;27;20251;-71
2023/03/13 01:24:15;;;;;;;2.50;1.00;;;6.10;88.30;;;;;;5113618;27;20193;-71
2023/03/13 01:26:42;;;;;;;3.88;1.00;;;6.10;88.60;;;;;;5113146;27;20184;-71
2023/03/13 01:29:11;;;;;;;2.97;1.20;;;6.10;88.30;;;;;;5113516;27;20223;-71
2023/03/13 01:31:38;;;;;;;2.95;1.30;;;6.00;88.00;;;;;;5127962;27;20222;-71
2023/03/13 01:34:06;;;;;;;3.88;1.30;;;6.00;88.10;;;;;;5131469;27;20219;-71
2023/03/13 01:36:35;;;;;;;2.55;1.15;;;5.90;88.50;;;;;;5131256;27;20700;-70
2023/03/13 01:39:02;;;;;;;3.30;1.63;;;5.90;88.60;;;;;;5130550;27;20230;-71
2023/03/13 01:41:30;;;;;;;3.58;2.10;;;5.80;88.80;;;;;;5131583;27;20257;-71
2023/03/13 01:43:59;;;;;;;4.10;2.10;;;5.80;88.80;;;;;;5131389;27;20194;-71
2023/03/13 01:46:29;;;;;;;7.43;3.50;;;5.80;87.90;;;;;;5130924;27;20270;-73
2023/03/13 01:49:00;;;;;;;3.50;1.90;;;5.70;88.10;;;;;;5112500;27;20214;-71
2023/03/13 01:51:30;;;;;;;2.90;1.63;;;5.60;88.20;;;;;;5113095;27;20284;-71
2023/03/13 01:54:03;;;;;;;4.60;1.27;;;5.50;88.00;;;;;;5112754;28;20295;-71
2023/03/13 01:56:36;;;;;;;3.70;1.48;;;5.50;88.70;;;;;;5113333;27;20190;-71
2023/03/13 01:59:06;;;;;;;2.88;1.15;;;5.40;89.40;;;;;;5113110;28;20504;-71
2023/03/13 02:01:35;;;;;;;3.30;1.30;;;5.30;89.80;;;;;;5114565;27;20330;-71
2023/03/13 02:04:02;;;;;;;3.58;1.65;;;5.40;90.00;;;;;;5110626;28;20271;-71
2023/03/13 02:06:33;;;;;;;3.28;1.50;;;5.30;90.10;;;;;;5110517;28;20271;-70
2023/03/13 02:09:05;;;;;;;2.95;1.42;;;5.20;90.40;;;;;;5110086;28;20192;-71
2023/03/13 02:11:42;;;;;;;2.42;1.10;;;5.20;90.20;;;;;;5110636;28;20681;-71
2023/03/13 02:14:09;;;;;;;2.15;0.88;;;5.20;90.30;;;;;;5109857;28;20362;-71
2023/03/13 02:16:38;;;;;;;2.22;1.00;;;5.20;90.30;;;;;;5110462;28;20271;-71
2023/03/13 02:19:17;;;;;;;2.20;0.90;;;5.20;90.50;;;;;;5110409;28;20203;-71
2023/03/13 02:21:50;;;;;;;2.40;0.80;;;5.20;90.50;;;;;;5110066;28;20291;-71
2023/03/13 02:24:23;;;;;;;1.95;0.90;;;5.30;90.30;;;;;;5110703;28;20200;-71
2023/03/13 02:26:51;;;;;;;2.33;1.15;;;5.30;90.30;;;;;;5109317;28;20647;-71
2023/03/13 02:29:18;;;;;;;3.78;1.40;;;5.30;90.00;;;;;;5110460;28;20291;-71
2023/03/13 02:31:48;;;;;;;2.35;1.08;;;5.20;90.20;;;;;;5110606;28;20603;-71
2023/03/13 02:34:21;;;;;;;2.55;1.15;;;5.20;90.20;;;;;;5110106;28;20267;-73
2023/03/13 02:36:49;;;;;;;3.25;0.90;;;5.10;90.20;;;;;;5109910;28;20245;-71
2023/03/13 02:39:20;;;;;;;2.47;1.00;;;5.10;90.30;;;;;;5110056;28;20188;-71
2023/03/13 02:41:48;;;;;;;2.50;1.10;;;5.10;90.30;;;;;;5109718;28;20291;-71
2023/03/13 02:44:16;;;;;;;2.75;1.20;;;5.10;90.30;;;;;;5092121;28;20192;-71
2023/03/13 02:46:54;;;;;;;2.10;1.10;;;5.00;90.40;;;;;;5092153;28;20283;-73
2023/03/13 02:49:24;;;;;;;2.15;1.10;;;5.00;90.40;;;;;;5091791;28;20212;-71
2023/03/13 02:51:53;;;;;;;1.90;1.00;;;5.00;90.70;;;;;;5092036;28;20185;-70
2023/03/13 02:54:24;;;;;;;1.80;1.02;;;5.00;90.40;;;;;;5092052;28;20283;-71
2023/03/13 02:56:55;;;;;;;2.03;1.00;;;5.00;90.60;;;;;;5092013;28;20189;-71
2023/03/13 02:59:29;;;;;;;2.55;1.00;;;5.10;90.80;;;;;;5092156;28;21620;-71
2023/03/13 03:01:56;;;;;;;2.35;1.65;;;5.10;90.80;;;;;;5114438;27;20328;-72
2023/03/13 03:04:24;;;;;;;2.10;1.05;;;5.20;90.60;;;;;;5116244;27;20275;-71
2023/03/13 03:06:52;;;;;;;2.42;0.70;;;5.20;90.30;;;;;;5116419;27;20306;-71
2023/03/13 03:09:20;;;;;;;2.08;0.95;;;5.30;90.00;;;;;;5115974;27;20216;-70
2023/03/13 03:11:47;;;;;;;1.90;0.80;;;5.40;90.00;;;;;;5115915;27;20227;-71
2023/03/13 03:14:15;;;;;;;2.15;0.80;;;5.40;89.80;;;;;;5115784;27;20274;-71
2023/03/13 03:16:44;;;;;;;2.20;0.90;;;5.40;89.80;;;;;;5115577;27;20200;-71
2023/03/13 03:19:11;;;;;;;2.47;1.27;;;5.40;89.80;;;;;;5115681;27;20275;-71
2023/03/13 03:21:39;;;;;;;1.92;0.82;;;5.40;89.30;;;;;;5133532;27;20239;-71
2023/03/13 03:24:06;;;;;;;2.05;0.65;;;5.40;89.00;;;;;;5133983;27;20223;-71
2023/03/13 03:26:34;;;;;;;1.85;0.85;;;5.30;88.90;;;;;;5134256;27;20230;-70
2023/03/13 03:29:01;;;;;;;2.00;0.90;;;5.40;88.40;;;;;;5133496;27;20274;-71
2023/03/13 03:31:28;;;;;;;1.50;0.70;;;5.50;88.20;;;;;;5115238;27;20222;-71
2023/03/13 03:33:57;;;;;;;2.00;0.80;;;5.50;88.00;;;;;;5131112;27;20282;-70
2023/03/13 03:36:24;;;;;;;2.20;0.80;;;5.50;87.90;;;;;;5133844;27;20617;-71
2023/03/13 03:38:51;;;;;;;2.10;1.13;;;5.60;87.70;;;;;;5132973;27;20219;-71
2023/03/13 03:41:19;;;;;;;2.50;1.30;;;5.60;87.80;;;;;;5133920;27;20191;-71
2023/03/13 03:43:47;;;;;;;1.77;0.75;;;5.60;88.70;;;;;;5133349;27;20184;-71
2023/03/13 03:46:14;;;;;;;1.70;0.70;;;5.70;87.30;;;;;;5133515;27;20190;-71
2023/03/13 03:48:43;;;;;;;2.58;1.00;;;5.70;86.30;;;;;;5132977;27;20274;-70
2023/03/13 03:51:13;;;;;;;1.65;0.77;;;5.80;86.50;;;;;;5133560;27;20270;-71
2023/03/13 03:53:40;;;;;;;3.97;1.20;;;5.80;86.10;;;;;;5133328;27;20223;-70
2023/03/13 03:56:07;;;;;;;1.90;0.82;;;5.90;86.00;;;;;;5133262;27;20582;-72
2023/03/13 03:58:34;;;;;;;2.60;0.95;;;5.90;85.40;;;;;;5115057;27;20645;-71
2023/03/13 04:01:01;;;;;;;2.63;1.00;;;5.90;85.20;;;;;;5114995;27;20220;-71
2023/03/13 04:03:28;;;;;;;1.75;0.70;;;5.90;85.60;;;;;;5114639;27;20295;-71
2023/03/13 04:05:55;;;;;;;2.25;0.90;;;5.90;85.40;;;;;;5114754;27;20193;-71
2023/03/13 04:08:24;;;;;;;1.70;0.70;;;5.90;85.90;;;;;;5114928;27;20279;-71
2023/03/13 04:10:51;;;;;;;1.90;0.95;;;5.90;86.30;;;;;;5114427;27;20223;-71
2023/03/13 04:13:18;;;;;;;2.40;1.02;;;5.90;85.80;;;;;;5114719;27;20275;-71
2023/03/13 04:15:45;;;;;;;2.30;0.90;;;5.90;85.20;;;;;;5114662;27;20241;-71
2023/03/13 04:18:12;;;;;;;1.98;0.90;;;5.90;85.60;;;;;;5132877;27;20270;-70
2023/03/13 04:20:39;;;;;;;1.73;0.90;;;6.00;85.10;;;;;;5132911;27;20279;-73
2023/03/13 04:23:06;;;;;;;2.45;0.80;;;6.00;85.20;;;;;;5133104;27;20215;-71
2023/03/13 04:25:34;;;;;;;2.08;0.90;;;6.00;84.90;;;;;;5132836;27;20187;-72
2023/03/13 04:28:02;;;;;;;1.90;0.75;;;6.00;84.60;;;;;;5114361;27;20185;-71
2023/03/13 04:30:29;;;;;;;1.90;0.85;;;6.10;84.10;;;;;;5114479;27;20287;-70
2023/03/13 04:32:56;;;;;;;1.90;0.70;;;6.10;84.60;;;;;;5114656;27;20284;-71
2023/03/13 04:35:23;;;;;;;2.75;0.95;;;6.10;84.70;;;;;;5114409;27;20192;-71
2023/03/13 04:37:50;;;;;;;1.67;0.75;;;6.10;84.10;;;;;;5114040;27;20216;-71
2023/03/13 04:40:17;;;;;;;3.85;1.45;;;6.20;83.30;;;;;;5114348;27;20207;-71
2023/03/13 04:42:46;;;;;;;3.20;1.20;;;6.20;83.20;;;;;;5113907;27;20227;-71
2023/03/13 04:45:13;;;;;;;2.50;1.10;;;6.20;83.20;;;;;;5127296;27;20187;-71
2023/03/13 04:47:40;;;;;;;2.15;0.90;;;6.20;82.70;;;;;;5134473;27;20279;-75
2023/03/13 04:50:07;;;;;;;5.13;1.15;;;6.30;82.70;;;;;;5134855;27;20230;-71
2023/03/13 04:52:34;;;;;;;2.40;1.00;;;6.30;82.80;;;;;;5135062;27;20270;-71
2023/03/13 04:55:01;;;;;;;2.63;0.80;;;6.30;82.80;;;;;;5135182;27;20222;-71
2023/03/13 04:57:28;;;;;;;2.03;1.05;;;6.30;83.50;;;;;;5135034;27;20219;-71
2023/03/13 04:59:57;;;;;;;1.83;1.00;;;6.30;84.10;;;;;;5132669;27;20306;-71
2023/03/13 05:02:24;;;;;;;1.92;0.90;;;6.40;84.00;;;;;;5114268;28;20222;-70
2023/03/13 05:04:51;;;;;;;1.50;0.60;;;6.40;83.70;;;;;;5114110;28;20211;-71
2023/03/13 05:07:18;;;;;;;3.00;0.88;;;6.50;83.60;;;;;;5114442;28;20219;-71
2023/03/13 05:09:45;;;;;;;1.90;0.70;;;6.60;82.40;;;;;;5114079;28;20275;-71
2023/03/13 05:12:11;;;;;;;1.98;0.82;;;6.60;81.70;;;;;;5114327;28;20271;-71
2023/03/13 05:14:38;;;;;;;2.30;0.82;;;6.70;81.20;;;;;;5114113;28;20196;-72
2023/03/13 05:17:07;;;;;;;2.25;0.80;;;6.70;80.90;;;;;;5114179;28;20215;-71
2023/03/13 05:19:38;;;;;;;2.05;0.98;;;6.80;80.00;;;;;;5114276;28;20283;-71
2023/03/13 05:22:05;;;;;;;1.70;0.63;;;6.80;78.90;;;;;;5113152;28;20188;-71
2023/03/13 05:24:36;;;;;;;1.80;0.80;;;6.90;77.80;;;;;;5114127;28;20212;-71
2023/03/13 05:27:03;;;;;;;1.70;0.80;;;7.00;77.40;;;;;;5114188;28;20517;-71
2023/03/13 05:29:31;;;;;;;2.22;0.90;;;7.00;77.50;;;;;;5113269;28;20740;-71
2023/03/13 05:31:57;;;;;;;1.85;0.88;;;7.00;76.90;;;;;;5113446;28;20191;-71
2023/03/13 05:34:26;;;;;;;1.90;0.80;;;7.00;76.90;;;;;;5113613;28;20238;-71
2023/03/13 05:36:53;;;;;;;1.70;0.70;;;7.00;76.00;;;;;;5103541;28;20276;-71
2023/03/13 05:39:20;;;;;;;1.70;0.70;;;7.10;75.50;;;;;;5092686;28;20543;-71
2023/03/13 05:41:49;;;;;;;1.88;0.77;;;7.10;75.20;;;;;;5110180;28;20184;-72
2023/03/13 05:44:16;;;;;;;1.92;0.90;;;7.10;75.80;;;;;;5110832;28;20309;-71
2023/03/13 05:46:43;;;;;;;1.75;0.75;;;7.00;75.70;;;;;;5110721;28;20245;-73
2023/03/13 05:49:10;;;;;;;1.75;0.70;;;7.10;76.00;;;;;;5110778;28;20235;-72
2023/03/13 05:51:39;;;;;;;1.90;0.80;;;7.10;75.50;;;;;;5109941;28;20219;-71
2023/03/13 05:54:06;;;;;;;2.40;1.20;;;7.10;75.40;;;;;;5110284;28;20630;-71
2023/03/13 05:56:33;;;;;;;5.88;1.10;;;7.10;74.90;;;;;;5110737;28;20234;-71
2023/03/13 05:59:10;;;;;;;2.20;1.00;;;7.20;74.10;;;;;;5110518;28;20645;-73
2023/03/13 06:01:37;;;;;;;3.78;1.35;;;7.20;73.20;;;;;;5112184;27;20746;-74
2023/03/13 06:04:05;;;;;;;2.70;1.20;;;7.20;73.50;;;;;;5118571;27;20239;-71
2023/03/13 06:06:32;;;;;;;2.15;0.98;;;7.20;72.50;;;;;;5111975;27;20238;-73
2023/03/13 06:09:04;;;;;;;12.02;1.67;;;7.20;71.80;;;;;;5118788;27;20184;-71
2023/03/13 06:11:31;;;;;;;2.85;1.95;;;7.30;72.00;;;;;;5112185;28;20192;-71
2023/03/13 06:13:59;;;;;;;3.00;2.10;;;7.30;71.30;;;;;;5124777;28;20522;-72
2023/03/13 06:16:28;;;;;;;3.13;2.10;;;7.40;71.10;;;;;;5130197;28;20196;-73
2023/03/13 06:18:57;;;;;;;2.78;1.50;;;7.50;70.50;;;;;;5120754;28;20199;-73
2023/03/13 06:21:24;;;;;;;2.03;1.10;;;7.50;69.80;;;;;;5112242;28;20192;-71
2023/03/13 06:23:51;;;;;;;2.13;1.13;;;7.60;69.20;;;;;;5115165;28;20255;-72
2023/03/13 06:26:20;;;;;;;4.25;1.27;;;7.60;69.30;;;;;;5112074;28;20188;-71
2023/03/13 06:28:48;;;;;;;2.00;1.15;;;7.60;69.10;;;;;;5122083;28;20190;-71
2023/03/13 06:31:16;;;;;;;2.40;1.20;;;7.70;68.20;;;;;;5130108;28;20548;-72
2023/03/13 06:33:43;;;;;;;1.70;0.75;;;7.70;67.00;;;;;;5124741;27;20191;-72
2023/03/13 06:36:11;;;;;;;2.10;0.65;;;7.80;66.70;;;;;;5116326;27;20188;-72
2023/03/13 06:38:38;;;;;;;1.90;0.90;;;7.90;65.70;;;;;;5126397;27;20210;-72
2023/03/13 06:41:05;;;;;;;2.10;0.88;;;7.90;65.00;;;;;;5133938;27;20192;-74
2023/03/13 06:43:34;;;;;;;2.00;0.80;;;8.00;65.30;;;;;;5132217;27;20288;-71
2023/03/13 06:46:05;;;;;;;2.10;0.80;;;7.90;65.70;;;;;;5128761;27;20227;-71
2023/03/13 06:48:34;;;;;;;1.77;0.80;;;8.00;64.10;;;;;;5117306;27;20233;-71
2023/03/13 06:51:02;;;;;;;2.22;0.80;;;8.10;63.40;;;;;;5118291;27;20183;-73
2023/03/13 06:53:29;;;;;;;2.13;0.80;;;8.10;62.90;;;;;;5126005;27;20199;-71
2023/03/13 06:55:55;;;;;;;2.25;0.88;;;8.20;62.20;;;;;;5116329;27;20287;-71
2023/03/13 06:58:22;;;;;;;1.95;0.80;;;8.20;62.70;;;;;;5115960;27;20613;-75
2023/03/13 07:00:51;;;;;;;2.22;0.90;;;8.20;63.20;;;;;;5120183;27;21637;-73
2023/03/13 07:03:18;;;;;;;2.60;0.98;;;8.40;63.20;;;;;;5132989;27;20294;-72
2023/03/13 07:05:44;;;;;;;2.20;0.90;;;8.50;62.20;;;;;;5127301;27;20191;-72
2023/03/13 07:08:12;;;;;;;3.67;1.30;;;8.60;61.80;;;;;;5114319;27;20566;-72
2023/03/13 07:10:39;;;;;;;2.85;1.27;;;8.80;61.80;;;;;;5120371;27;20291;-72
2023/03/13 07:13:06;;;;;;;2.80;1.35;;;8.80;60.10;;;;;;5124285;27;21258;-73
2023/03/13 07:15:33;;;;;;;2.30;1.30;;;8.90;60.10;;;;;;5119788;27;20184;-72
2023/03/13 07:18:04;;;;;;;3.28;1.70;;;8.90;60.80;;;;;;5118784;27;20228;-72
2023/03/13 07:20:32;;;;;;;2.35;1.40;;;9.00;59.80;;;;;;5122633;27;20225;-71
2023/03/13 07:22:59;;;;;;;2.53;1.55;;;9.00;59.30;;;;;;5121298;27;20227;-72
2023/03/13 07:25:26;;;;;;;2.65;1.45;;;9.10;60.50;;;;;;5131036;27;20221;-73
2023/03/13 07:27:53;;;;;;;2.97;1.20;;;9.10;59.60;;;;;;5114722;27;20192;-72
2023/03/13 07:30:20;;;;;;;2.10;0.82;;;9.10;59.70;;;;;;5118786;27;20286;-71
2023/03/13 07:32:47;;;;;;;2.60;1.08;;;9.10;59.00;;;;;;5121022;27;20266;-76
2023/03/13 07:35:15;;;;;;;2.15;1.00;;;9.20;58.90;;;;;;5123177;27;20261;-72
2023/03/13 07:37:42;;;;;;;3.30;1.50;;;9.20;59.00;;;;;;5123648;27;20271;-71
2023/03/13 07:40:11;;;;;;;3.67;1.40;;;9.30;58.50;;;;;;5118571;27;20191;-72
2023/03/13 07:42:41;;;;;;;2.28;1.20;;;9.30;58.80;;;;;;5124405;27;20252;-72
2023/03/13 07:45:09;;;;;;;2.97;1.40;;;9.40;58.40;;;;;;5126668;27;20303;-72
2023/03/13 07:47:36;;;;;;;3.00;1.25;;;9.50;58.40;;;;;;5115082;27;20596;-71
2023/03/13 07:50:04;;;;;;;3.00;1.35;;;9.80;59.40;;;;;;5115733;27;20189;-71
2023/03/13 07:52:32;;;;;;;2.10;1.00;;;10.10;58.70;;;;;;5114837;27;20508;-74
2023/03/13 07:54:59;;;;;;;2.38;1.15;;;10.50;57.40;;;;;;5132408;27;20567;-71
2023/03/13 07:57:26;;;;;;;19.98;11.90;;;10.80;56.50;;;;;;5133346;27;20578;-71
2023/03/13 07:59:53;;;;;;;21.83;14.32;;;11.30;57.10;;;;;;5131114;27;20242;-72
2023/03/13 08:02:20;;;;;;;35.80;23.10;;;13.50;54.80;;;;;;5096841;28;20640;-72
2023/03/13 08:04:51;;;;;;;20.98;10.95;;;14.70;48.30;;;;;;5094373;28;20217;-72
2023/03/13 08:07:23;;;;;;;6.25;3.30;;;15.20;46.90;;;;;;5094426;28;20338;-72
2023/03/13 08:09:52;;;;;;;13.40;7.53;;;15.20;45.50;;;;;;5094386;28;20203;-72
2023/03/13 08:12:19;;;;;;;10.27;6.47;;;15.10;44.50;;;;;;5094172;28;20540;-72
2023/03/13 08:14:45;;;;;;;11.17;6.80;;;14.90;42.40;;;;;;5094193;28;20532;-72
2023/03/13 08:17:12;;;;;;;21.57;9.23;;;14.60;42.90;;;;;;5094386;28;20876;-74
2023/03/13 08:19:39;;;;;;;5.50;2.93;;;14.40;42.70;;;;;;5094226;28;20510;-71
2023/03/13 08:22:06;;;;;;;7.00;4.30;;;14.20;43.30;;;;;;5094276;28;20869;-72
2023/03/13 08:24:33;;;;;;;4.40;3.30;;;14.00;43.60;;;;;;5094373;28;20550;-71
2023/03/13 08:27:01;;;;;;;6.60;3.80;;;13.60;43.70;;;;;;5094081;28;20474;-72
2023/03/13 08:29:28;;;;;;;5.18;2.80;;;13.30;44.80;;;;;;5094064;28;20283;-71
2023/03/13 08:31:55;;;;;;;4.20;1.95;;;13.00;47.00;;;;;;5093551;28;20284;-71
2023/03/13 08:34:22;;;;;;;5.00;1.40;;;12.70;48.60;;;;;;5094104;28;20189;-71
2023/03/13 08:36:51;;;;;;;2.55;1.10;;;12.50;50.30;;;;;;5094061;28;20208;-73
2023/03/13 08:39:20;;;;;;;5.00;1.92;;;12.40;50.80;;;;;;5094058;28;20221;-72
2023/03/13 08:41:48;;;;;;;2.85;1.60;;;12.20;52.10;;;;;;5093723;28;20228;-71
2023/03/13 08:44:18;;;;;;;3.35;1.63;;;12.20;52.70;;;;;;5093533;28;20248;-71
2023/03/13 08:46:46;;;;;;;4.18;2.60;;;12.20;53.80;;;;;;5093317;28;20276;-71
2023/03/13 08:49:16;;;;;;;8.57;2.58;;;12.20;54.70;;;;;;5093520;28;20192;-71
2023/03/13 08:51:43;;;;;;;8.60;2.80;;;12.30;54.20;;;;;;5093560;28;20193;-71
2023/03/13 08:54:10;;;;;;;3.85;1.50;;;12.40;55.70;;;;;;5093216;28;20224;-71
2023/03/13 08:56:37;;;;;;;2.08;0.82;;;12.50;56.10;;;;;;5093460;28;20207;-71
2023/03/13 08:59:05;;;;;;;2.40;0.95;;;12.60;54.50;;;;;;5093675;28;20197;-71
2023/03/13 09:01:35;;;;;;;3.30;1.42;;;12.50;52.80;;;;;;5109262;27;20227;-71
2023/03/13 09:04:05;;;;;;;2.55;1.17;;;12.40;52.80;;;;;;5113730;27;20308;-71
2023/03/13 09:06:32;;;;;;;2.40;1.20;;;12.30;52.70;;;;;;5113923;27;20283;-71
2023/03/13 09:08:59;;;;;;;2.72;1.30;;;12.40;53.00;;;;;;5113768;27;20220;-71
2023/03/13 09:11:27;;;;;;;2.42;1.13;;;12.50;54.50;;;;;;5113122;27;20714;-72
2023/03/13 09:13:58;;;;;;;5.25;1.20;;;12.80;54.90;;;;;;5113610;27;20275;-71
2023/03/13 09:16:26;;;;;;;2.78;1.23;;;13.00;53.80;;;;;;5113504;27;20211;-71
2023/03/13 09:18:56;;;;;;;2.55;1.13;;;13.20;54.00;;;;;;5113442;27;20278;-72
2023/03/13 09:21:24;;;;;;;3.63;1.40;;;13.40;53.40;;;;;;5131709;27;20278;-71
2023/03/13 09:23:51;;;;;;;4.20;1.80;;;14.00;53.70;;;;;;5128950;27;20704;-71
2023/03/13 09:26:23;;;;;;;2.87;1.50;;;16.00;51.90;;;;;;5114638;27;20525;-72
2023/03/13 09:28:50;;;;;;;2.77;1.47;;;20.20;47.00;;;;;;5131339;27;20465;-72
2023/03/13 09:31:19;;;;;;;2.77;1.17;;;24.00;37.10;;;;;;5131152;27;20469;-72
2023/03/13 09:33:47;;;;;;;2.90;1.03;;;26.20;31.10;;;;;;5131266;27;20443;-72
2023/03/13 09:36:16;;;;;;;3.50;0.90;;;26.70;28.00;;;;;;5130650;27;20476;-73
2023/03/13 09:38:43;;;;;;;2.00;0.90;;;26.70;26.20;;;;;;5130997;27;20926;-72
2023/03/13 09:41:22;;;;;;;3.57;1.90;;;26.80;25.40;;;;;;5131406;27;20481;-73
2023/03/13 09:43:55;;;;;;;2.10;0.80;;;26.40;25.00;;;;;;5126819;27;20524;-73
2023/03/13 09:46:36;;;;;;;2.23;1.00;;;25.80;25.80;;;;;;5131033;27;20512;-72
2023/03/13 09:49:07;;;;;;;2.10;0.90;;;25.60;26.50;;;;;;5113210;27;20466;-72
2023/03/13 09:51:37;;;;;;;3.47;0.80;;;25.30;26.70;;;;;;5113207;27;20431;-72
2023/03/13 09:54:08;;;;;;;2.13;0.70;;;24.70;26.90;;;;;;5112266;28;20478;-73
2023/03/13 09:56:41;;;;;;;2.70;1.00;;;24.10;28.00;;;;;;5113095;28;20440;-72
2023/03/13 09:59:18;;;;;;;2.17;0.90;;;24.00;28.70;;;;;;5112418;27;20947;-72
2023/03/13 10:01:47;;;;;;;3.17;0.70;;;25.60;27.00;;;;;;5112858;28;20552;-72
2023/03/13 10:04:28;;;;;;;2.07;0.80;;;26.40;25.10;;;;;;5110292;28;20517;-72
2023/03/13 10:06:57;;;;;;;6.13;0.90;;;26.90;23.40;;;;;;5092335;28;20439;-72
2023/03/13 10:09:28;;;;;;;2.10;0.73;;;27.60;23.30;;;;;;5092011;28;20531;-70
2023/03/13 10:12:03;;;;;;;2.93;2.23;;;28.00;22.40;;;;;;5091899;28;20434;-75
2023/03/13 10:14:38;;;;;;;1.83;0.67;;;29.50;21.50;;;;;;5092152;28;20510;-70
2023/03/13 10:17:11;;;;;;;1.80;0.60;;;31.00;19.80;;;;;;5092317;28;20533;-71
2023/03/13 10:19:42;;;;;;;1.80;0.67;;;32.10;18.30;;;;;;5092205;28;20439;-70
2023/03/13 10:22:15;;;;;;;2.57;0.70;;;32.40;18.00;;;;;;5092289;28;20503;-70
2023/03/13 10:24:49;;;;;;;1.70;0.73;;;32.20;17.80;;;;;;5110000;28;20458;-71
2023/03/13 10:27:16;;;;;;;2.50;0.80;;;31.80;17.20;;;;;;5110245;28;20528;-70
2023/03/13 10:29:43;;;;;;;2.13;0.87;;;31.30;17.60;;;;;;5110201;28;20449;-72
2023/03/13 10:32:13;;;;;;;2.00;0.83;;;30.70;18.80;;;;;;5109893;28;20786;-70
2023/03/13 10:34:52;;;;;;;2.20;0.70;;;30.20;19.40;;;;;;5109858;28;20485;-70
2023/03/13 10:37:23;;;;;;;1.77;0.70;;;29.30;18.80;;;;;;5109655;28;20473;-70
2023/03/13 10:39:50;;;;;;;2.70;0.90;;;28.50;19.70;;;;;;5109994;28;20516;-70
2023/03/13 10:42:28;;;;;;;3.83;1.90;;;28.50;20.10;;;;;;5110228;28;20515;-70
2023/03/13 10:45:00;;;;;;;1.77;0.70;;;29.20;20.00;;;;;;5109971;28;20442;-70
2023/03/13 10:47:27;;;;;;;2.47;0.80;;;30.60;19.80;;;;;;5109919;28;21646;-70
2023/03/13 10:49:56;;;;;;;1.73;0.60;;;31.60;18.20;;;;;;5110160;28;20517;-70
2023/03/13 10:52:34;;;;;;;2.40;0.90;;;31.70;17.40;;;;;;5091506;28;20435;-71
2023/03/13 10:55:04;;;;;;;2.00;0.83;;;32.20;18.80;;;;;;5091938;28;20972;-71
2023/03/13 10:57:32;;;;;;;2.17;0.70;;;34.40;17.40;;;;;;5089574;28;20430;-71
2023/03/13 10:59:59;;;;;;;2.00;0.90;;;36.50;15.80;;;;;;5094218;28;20526;-71
2023/03/13 11:02:32;;;;;;;3.40;0.80;;;38.50;14.10;;;;;;5112235;28;20465;-74
2023/03/13 11:05:19;;;;;;;1.87;0.80;;;39.90;14.00;;;;;;5112046;28;20491;-73
2023/03/13 11:07:47;;;;;;;1.90;0.70;;;40.70;12.70;;;;;;5111880;28;20525;-71
2023/03/13 11:10:19;;;;;;;2.07;1.00;;;41.30;12.20;;;;;;5111430;28;20530;-72
2023/03/13 11:12:50;;;;;;;2.30;1.20;;;41.00;12.70;;;;;;5112430;28;20559;-71
2023/03/13 11:15:20;;;;;;;2.77;0.70;;;42.00;12.90;;;;;;5112319;28;20458;-78
2023/03/13 11:17:55;;;;;;;2.17;0.70;;;43.80;12.20;;;;;;5115434;28;20516;-71
2023/03/13 11:20:27;;;;;;;2.47;1.30;;;45.20;10.30;;;;;;5112787;27;20536;-74
2023/03/13 11:23:08;;;;;;;1.87;0.70;;;45.90;9.60;;;;;;5118979;27;20532;-72
2023/03/13 11:25:39;;;;;;;1.90;0.77;;;45.80;9.30;;;;;;5116713;27;21030;-71
2023/03/13 11:28:32;;;;;;;1.80;0.70;;;45.80;9.80;;;;;;5119914;27;20434;-72
2023/03/13 11:31:13;;;;;;;2.30;0.90;;;45.90;9.10;;;;;;5119219;27;20441;-71
2023/03/13 11:33:52;;;;;;;2.20;1.03;;;45.30;9.40;;;;;;5119305;27;20528;-71
2023/03/13 11:36:24;;;;;;;1.70;0.70;;;44.00;9.40;;;;;;5133105;27;20524;-71
2023/03/13 11:38:55;;;;;;;2.63;0.80;;;43.10;9.90;;;;;;5133889;27;20433;-71
2023/03/13 11:41:49;;;;;;;3.63;0.90;;;42.60;10.80;;;;;;5115542;27;20856;-71
2023/03/13 11:44:28;;;;;;;3.93;1.07;;;42.60;10.80;;;;;;5129928;27;20765;-72
2023/03/13 11:47:08;;;;;;;1.73;0.70;;;43.20;10.40;;;;;;5133763;27;20440;-71
2023/03/13 11:50:00;;;;;;;1.93;1.00;;;43.70;10.30;;;;;;5115416;27;20473;-72
2023/03/13 11:52:42;;;;;;;3.90;1.07;;;44.40;10.10;;;;;;5115181;27;20981;-71
2023/03/13 11:55:25;;;;;;;2.80;1.20;;;45.40;9.70;;;;;;5115113;27;20466;-73
2023/03/13 11:58:06;;;;;;;1.80;0.60;;;45.80;9.20;;;;;;5115296;27;20521;-72
2023/03/13 12:00:36;;;;;;;1.80;0.80;;;45.60;9.10;;;;;;5119533;27;20548;-72
2023/03/13 12:03:12;;;;;;;2.00;0.70;;;46.20;9.40;;;;;;5095074;28;20830;-72
2023/03/13 12:05:45;;;;;;;3.20;0.50;;;47.00;9.20;;;;;;5096994;28;20565;-79
2023/03/13 12:08:19;;;;;;;1.90;0.70;;;46.60;8.70;;;;;;5093797;28;20492;-72
2023/03/13 12:10:54;;;;;;;2.47;0.50;;;45.70;9.50;;;;;;5100373;28;20434;-73
2023/03/13 12:13:27;;;;;;;1.87;0.60;;;44.00;10.20;;;;;;5102077;28;20521;-72
2023/03/13 12:15:58;;;;;;;1.70;0.50;;;42.60;10.60;;;;;;5097320;28;20499;-71
2023/03/13 12:18:32;;;;;;;1.83;0.60;;;41.20;11.10;;;;;;5104164;28;20515;-71
2023/03/13 12:21:05;;;;;;;1.77;0.60;;;39.80;12.20;;;;;;5095932;28;20543;-72
2023/03/13 12:23:41;;;;;;;2.03;0.60;;;38.80;12.90;;;;;;5111377;28;20521;-71
2023/03/13 12:26:13;;;;;;;1.70;0.60;;;37.80;13.30;;;;;;5104246;28;20482;-70
2023/03/13 12:28:45;;;;;;;5.77;3.60;;;37.10;14.10;;;;;;5089559;28;20476;-71
2023/03/13 12:31:19;;;;;;;7.60;5.67;;;36.50;14.60;;;;;;5097180;28;20565;-71
2023/03/13 12:33:52;;;;;;;3.50;0.90;;;36.10;15.00;;;;;;5105337;28;20438;-72
2023/03/13 12:36:33;;;;;;;2.10;0.73;;;36.10;15.30;;;;;;5110673;28;20516;-71
2023/03/13 12:39:10;;;;;;;3.20;0.80;;;36.80;15.80;;;;;;5104379;28;20430;-71
2023/03/13 12:41:43;;;;;;;1.70;0.70;;;38.30;14.90;;;;;;5099439;28;20530;-71
2023/03/13 12:44:16;;;;;;;2.77;0.70;;;39.70;14.00;;;;;;5092973;28;20514;-71
2023/03/13 12:46:47;;;;;;;2.10;0.80;;;41.10;13.30;;;;;;5100487;28;20470;-72
2023/03/13 12:49:40;;;;;;;3.17;1.80;;;42.10;12.60;;;;;;5092854;28;20435;-71
2023/03/13 12:52:38;;;;;;;3.90;1.60;;;42.80;12.00;;;;;;5109965;28;20446;-72
2023/03/13 12:55:43;;;;;;;2.00;1.20;;;42.90;11.20;;;;;;5078954;28;20439;-73
2023/03/13 12:58:40;;;;;;;1.60;0.50;;;42.80;11.10;;;;;;5099308;28;20446;-72
2023/03/13 13:01:11;;;;;;;2.83;0.80;;;42.40;11.30;;;;;;5107646;28;20458;-71
2023/03/13 13:03:50;;;;;;;1.70;0.70;;;42.20;11.60;;;;;;5107761;28;20439;-73
2023/03/13 13:06:17;;;;;;;2.87;1.00;;;42.10;11.40;;;;;;5095954;28;20477;-71